Nearby METAR Reports

 

KMSN - Madison, Wisconsin, USA
Distance from station: WNW 8mi, 13km
Updated: Tue, Jul-27-2021 2:53am CDT
Clear
Clear
 Wind from SW
Wind: SW 3 mph , 6 km/h
Temperature: 75°F , 24°C
Dew Point: 63°F , 17°C
Humidity: 65%
Barometer: 30.01 inHg , 1016.3 hPa
Clouds: Clear
Visibility: 10 miles , 16 km
2021/07/27 07:53 KMSN 270753Z AUTO 22003KT 10SM CLR 24/17 A3001 RMK AO2 SLP155 T02440172
KC29 - Middleton, Wisconsin, USA
Distance from station: W 17mi, 27km
Updated: Tue, Jul-27-2021 3:15am CDT
Partly cloudy
Partly cloudy
 Wind from calm
Wind: Calm
Temperature: 73°F , 23°C
Dew Point: 64°F , 18°C
Humidity: 74%
Barometer: 30.03 inHg , 1016.9 hPa
Clouds: Partly cloudy
Visibility: 10 miles , 16 km
Cloud details: Partly cloudy 10000 ft
Partly cloudy 12000 ft
2021/07/27 08:15 KC29 270815Z AUTO 00000KT 10SM SCT100 SCT120 23/18 A3003 RMK AO1 T02280176
 
KRYV - Watertown, Wisconsin, USA
Distance from station: ENE 25mi, 40km
Updated: Tue, Jul-27-2021 3:15am CDT
Clear
Clear
 Wind from calm
Wind: Calm
Temperature: 70°F , 21°C
Dew Point: 64°F , 18°C
Humidity: 83%
Barometer: 30.03 inHg , 1016.9 hPa
Clouds: Clear
Visibility: 10 miles , 16 km
2021/07/27 08:15 KRYV 270815Z AUTO 00000KT 10SM CLR 21/18 A3003 RMK AO2 T02090180
KUNU - Juneau, Wisconsin, USA
Distance from station: NE 33mi, 54km
Updated: Tue, Jul-27-2021 3:35am CDT
Clear
Clear
 Wind from NE
Wind: NE 3 mph , 6 km/h
Temperature: 68°F , 20°C
Dew Point: 61°F , 16°C
Humidity: 78%
Barometer: 30.06 inHg , 1017.9 hPa
Clouds: Clear
Visibility: 10 miles , 16 km
2021/07/27 08:35 KUNU 270835Z AUTO 05003KT 10SM CLR 20/16 A3006 RMK AO2 T02000161
 
KJVL - Janesville/Rock, Wisconsin, USA
Distance from station: SSE 34mi, 55km
Updated: Tue, Jul-27-2021 3:15am CDT
Clear
Clear
 Wind from calm
Wind: Calm
Temperature: 68°F , 20°C
Dew Point: 63°F , 17°C
Humidity: 83%
Barometer: 30.03 inHg , 1016.9 hPa
Clouds: Clear
Visibility: 10 miles , 16 km
2021/07/27 08:15 KJVL 270815Z AUTO 00000KT 10SM CLR 20/17 A3003 RMK AO2
KEFT - Monroe, Wisconsin, USA
Distance from station: SSW 39mi, 63km
Updated: Tue, Jul-27-2021 3:15am CDT
Clear
Clear
 Wind from SW
Wind: SW 6 mph , 9 km/h
Temperature: 70°F , 21°C
Dew Point: 61°F , 16°C
Humidity: 73%
Barometer: 30.03 inHg , 1016.9 hPa
Clouds: Clear
Visibility: 10 miles , 16 km
2021/07/27 08:15 KEFT 270815Z AUTO 23005KT 10SM CLR 21/16 A3003 RMK AO2 T02130163
 
KDLL - Dells/Baraboo, Wisconsin, USA
Distance from station: NW 41mi, 65km
Updated: Tue, Jul-27-2021 3:15am CDT
Clear
Clear
 Wind from ENE
Wind: ENE 3 mph , 6 km/h
Temperature: 70°F , 21°C
Dew Point: 63°F , 17°C
Humidity: 78%
Barometer: 30.03 inHg , 1016.9 hPa
Clouds: Clear
Visibility: 10 miles , 16 km
2021/07/27 08:15 KDLL 270815Z AUTO 06003KT 10SM CLR 21/17 A3003 RMK AO2 LTG DSNT N AND NE T02100172
KUES - Waukesha Cnty, Wisconsin, USA
Distance from station: E 48mi, 77km
Updated: Tue, Jul-27-2021 3:15am CDT
Clear
Clear
 Wind from calm
Wind: Calm
Temperature: 68°F , 20°C
Dew Point: 61°F , 16°C
Humidity: 78%
Barometer: 30.03 inHg , 1016.9 hPa
Clouds: Clear
Visibility: 10 miles , 16 km
2021/07/27 08:15 KUES 270815Z AUTO 00000KT 10SM CLR 20/16 A3003 RMK AO2
 
KC35 - Reedsburg, Wisconsin, USA
Distance from station: NW 50mi, 80km
Updated: Tue, Jul-27-2021 3:15am CDT
Clear
Clear
 Wind from calm
Wind: Calm
Temperature: 70°F , 21°C
Dew Point: 64°F , 18°C
Humidity: 83%
Barometer: 30.02 inHg , 1016.6 hPa
Clouds: Clear
Visibility: 10 miles , 16 km
2021/07/27 08:15 KC35 270815Z AUTO 00000KT 10SM CLR 21/18 A3002 RMK AO2 T02050182 PWINO
KLNR - Lone Rock, Wisconsin, USA
Distance from station: W 50mi, 81km
Updated: Tue, Jul-27-2021 2:56am CDT
Clear
Clear
 Wind from calm
Wind: Calm
Temperature: 66°F , 19°C
Dew Point: 64°F , 18°C
Humidity: 94%
Barometer: 30.01 inHg , 1016.3 hPa
Clouds: Clear
Visibility: 10 miles , 16 km
2021/07/27 07:56 KLNR 270756Z AUTO 00000KT 10SM CLR 19/18 A3001 RMK AO2 SLP152 T01890178
 
KBUU - Burlington, Wisconsin, USA
Distance from station: ESE 54mi, 86km
Updated: Tue, Jul-27-2021 3:15am CDT

 Wind from SSW
Wind: SSW 3 mph , 6 km/h
Temperature: 68°F , 20°C
Dew Point: 63°F , 17°C
Humidity: 83%
Barometer: 30.03 inHg , 1016.9 hPa
Visibility: 10 miles , 16 km
2021/07/27 08:15 KBUU 270815Z AUTO 21003KT 10SM 20/17 A3003 RMK AO2 T02040167 PWINO
KMRJ - Mineral Point, Wisconsin, USA
Distance from station: WSW 54mi, 88km
Updated: Tue, Jul-27-2021 3:15am CDT
Clear
Clear
 Wind from SSE
Wind: SSE 3 mph , 6 km/h
Temperature: 70°F , 21°C
Dew Point: 61°F , 16°C
Humidity: 73%
Barometer: 30.04 inHg , 1017.3 hPa
Clouds: Clear
Visibility: 10 miles , 16 km
2021/07/27 08:15 KMRJ 270815Z AUTO 16003KT 10SM CLR 21/16 A3004 RMK AO2
 
KETB - West Bend, Wisconsin, USA
Distance from station: ENE 58mi, 93km
Updated: Tue, Jul-27-2021 3:15am CDT
Clear
Clear
 Wind from NNW
Wind: NNW 6 mph , 9 km/h
Temperature: 70°F , 21°C
Dew Point: 59°F , 15°C
Humidity: 69%
Barometer: 30.05 inHg , 1017.6 hPa
Clouds: Clear
Visibility: 10 miles , 16 km
2021/07/27 08:15 KETB 270815Z AUTO 33005KT 10SM CLR 21/15 A3005 RMK AO2
KFLD - Fond Du Lac, Wisconsin, USA
Distance from station: NE 58mi, 94km
Updated: Tue, Jul-27-2021 2:53am CDT
Clear
Clear
 Wind from NNE
Wind: NNE 8 mph , 13 km/h
Temperature: 72°F , 22°C
Dew Point: 61°F , 16°C
Humidity: 69%
Barometer: 30.04 inHg , 1017.3 hPa
Clouds: Clear
Visibility: 10 miles , 16 km
2021/07/27 07:53 KFLD 270753Z AUTO 02007KT 10SM CLR 22/16 A3004 RMK AO2 RAE12 SLP167 P0000 T02220161
 
KMWC - Milwaukee/Lawren, Wisconsin, USA
Distance from station: E 59mi, 94km
Updated: Tue, Jul-27-2021 3:15am CDT
Partly cloudy
Partly cloudy
 Wind from NNW
Wind: NNW 10 mph , 17 km/h
Temperature: 72°F , 22°C
Dew Point: 59°F , 15°C
Humidity: 65%
Barometer: 30.03 inHg , 1016.9 hPa
Clouds: Partly cloudy
Visibility: 10 miles , 16 km
Cloud details: Partly cloudy 12000 ft
2021/07/27 08:15 KMWC 270815Z AUTO 34009KT 10SM SCT120 22/15 A3003 RMK AO2
KFEP - Freeport, Illinois, USA
Distance from station: SSW 62mi, 100km
Updated: Tue, Jul-27-2021 3:15am CDT
Clear
Clear
 Wind from calm
Wind: Calm
Temperature: 64°F , 18°C
Dew Point: 63°F , 17°C
Humidity: 94%
Barometer: 30.05 inHg , 1017.6 hPa
Clouds: Clear
Visibility: 10 miles , 16 km
2021/07/27 08:15 KFEP 270815Z AUTO 00000KT 10SM CLR 18/17 A3005 RMK AO2 T01790174
 
KRFD - Rockford, Illinois, USA
Distance from station: S 62mi, 100km
Updated: Tue, Jul-27-2021 2:54am CDT
Overcast
Overcast
 Wind from calm
Wind: Calm
Temperature: 70°F , 21°C
Dew Point: 63°F , 17°C
Humidity: 78%
Barometer: 30.04 inHg , 1017.3 hPa
Clouds: Overcast
Visibility: 10 miles , 16 km
Cloud details: Mostly cloudy 15000 ft
Overcast 25000 ft
2021/07/27 07:54 KRFD 270754Z 00000KT 10SM BKN150 OVC250 21/17 A3004 RMK AO2 SLP166 T02110172
KY50 - Wautoma, Wisconsin, USA
Distance from station: N 65mi, 104km
Updated: Tue, Jul-27-2021 2:56am CDT
Clear
Clear
 Wind from SE
Wind: SE 3 mph , 6 km/h
Temperature: 66°F , 19°C
Dew Point: 61°F , 16°C
Humidity: 83%
Barometer: 30.03 inHg , 1016.9 hPa
Clouds: Clear
Visibility: 10 miles , 16 km
2021/07/27 07:56 KY50 270756Z AUTO 14003KT 10SM CLR 19/16 A3003 RMK AO2 SLP160 T01890161 PNO $
 
KMKE - Milwaukee, Wisconsin, USA
Distance from station: E 66mi, 107km
Updated: Tue, Jul-27-2021 2:52am CDT
Mostly cloudy
Mostly cloudy
 Wind from W
Wind: W 6 mph , 9 km/h
Temperature: 79°F , 26°C
Dew Point: 63°F , 17°C
Humidity: 58%
Barometer: 30.01 inHg , 1016.3 hPa
Clouds: Mostly cloudy
Visibility: 10 miles , 16 km
Cloud details: Few Clouds 12000 ft
Mostly cloudy 15000 ft
2021/07/27 07:52 KMKE 270752Z 26005KT 10SM FEW120 BKN150 26/17 A3001 RMK AO2 SLP156 T02610167
KOSH - Oshkosh, Wisconsin, USA
Distance from station: NNE 68mi, 110km
Updated: Tue, Jul-27-2021 2:53am CDT
Clear
Clear
 Wind from NE
Wind: NE 7 mph , 11 km/h
Temperature: 66°F , 19°C
Dew Point: 63°F , 17°C
Humidity: 88%
Barometer: 30.03 inHg , 1016.9 hPa
Clouds: Clear
Visibility: 10 miles , 16 km
2021/07/27 07:53 KOSH 270753Z AUTO 05006KT 10SM CLR 19/17 A3003 RMK AO2 RAE0656 SLP156 P0001 T01940172